»·PEaware :: N968LT KDLO-KEMT

N968LT :: KDLO-KEMT

FLIGHT INFORMATION

Flight Status: Arrived
Operator: Privately registered:
United States
More flights under this callsign
Pilot: Terry F. (30390)
Aircraft: MOONEY M-20 201 202 205 220 ATS MSE
(M20P)
More flights by this aircraft type
Origin: KDLO Delano Mun
United States
Destination: KEMT El Monte
United States
More flights between these airports :: More routes between these airports
Route:
File this flight plan on PilotEdge
Remarks:
Altitude:
(Current/Filed)
7,500ft
Speed:
(Current/Filed)
150kts
Departed: 24-Nov-20 08:28 AM
Arrived: 24-Nov-20 09:22 AM
Distance/Time
Traveled:
0nm/0:53
Distance/Time
To Go:
Arrived

Flight Plot

Page will automatically refresh every two minutes.


Map Options




Map Legend


Flown Route
Filed Route
Departure Airport
Arrival Airport
Navaid (VOR, NDB)
Fix

Horizontal Profiles

Position Reports

Time Latitude Longitude Heading Altitude Ground
Speed
24-Nov-20 08:16 35.746202 -119.239205 68 311ft 0kts
24-Nov-20 08:17 35.746202 -119.239205 68 311ft 0kts
24-Nov-20 08:18 35.746202 -119.239205 68 311ft 0kts
24-Nov-20 08:19 35.746202 -119.239205 68 311ft 0kts
24-Nov-20 08:20 35.746202 -119.239205 68 311ft 0kts
24-Nov-20 08:21 35.746202 -119.239205 68 311ft 0kts
24-Nov-20 08:22 35.746202 -119.239205 68 311ft 0kts
24-Nov-20 08:23 35.746202 -119.239205 68 311ft 0kts
24-Nov-20 08:24 35.747278 -119.239256 345 313ft 15kts
24-Nov-20 08:25 35.751328 -119.240136 1 314ft 9kts
24-Nov-20 08:26 35.751364 -119.240135 0 314ft 0kts
24-Nov-20 08:27 35.740750 -119.234502 162 479ft 107kts
24-Nov-20 08:28 35.721962 -119.202346 107 1696ft 135kts
24-Nov-20 08:29 35.708811 -119.157891 110 2908ft 141kts
24-Nov-20 08:30 35.691876 -119.113951 114 4023ft 144kts
24-Nov-20 08:31 35.668168 -119.073584 134 5022ft 149kts
24-Nov-20 08:32 35.638518 -119.036424 131 5694ft 154kts
24-Nov-20 08:33 35.608387 -118.999341 131 6192ft 153kts
24-Nov-20 08:34 35.578311 -118.962829 131 6689ft 152kts
24-Nov-20 08:35 35.548288 -118.926563 131 7186ft 151kts
24-Nov-20 08:36 35.518475 -118.890562 131 7682ft 150kts
24-Nov-20 08:37 35.486438 -118.858114 150 8167ft 152kts
24-Nov-20 08:38 35.447417 -118.837837 155 8662ft 152kts
24-Nov-20 08:39 35.407813 -118.820339 157 9157ft 151kts
24-Nov-20 08:41 35.368068 -118.803925 158 9654ft 150kts
24-Nov-20 08:42 35.328400 -118.787975 159 10152ft 149kts
24-Nov-20 08:43 35.288996 -118.772299 159 10651ft 149kts
24-Nov-20 08:44 35.249638 -118.756720 159 11152ft 148kts
24-Nov-20 08:45 35.209917 -118.741030 160 11496ft 162kts
24-Nov-20 08:46 35.163696 -118.722985 160 11497ft 181kts
24-Nov-20 08:47 35.115858 -118.701108 150 11503ft 185kts
24-Nov-20 08:48 35.081452 -118.655141 128 11507ft 184kts
24-Nov-20 08:49 35.046695 -118.609245 129 11511ft 184kts
24-Nov-20 08:50 35.011874 -118.563133 129 11511ft 185kts
24-Nov-20 08:51 34.976572 -118.516607 130 11510ft 188kts
24-Nov-20 08:52 34.940865 -118.469284 130 11509ft 191kts
24-Nov-20 08:53 34.904648 -118.421514 130 11505ft 194kts
24-Nov-20 08:54 34.867396 -118.373304 131 11497ft 196kts
24-Nov-20 08:55 34.830369 -118.324493 131 11490ft 196kts
24-Nov-20 08:56 34.793115 -118.275642 131 11488ft 196kts
24-Nov-20 08:57 34.755963 -118.226935 132 11486ft 196kts
24-Nov-20 08:57 34.724998 -118.186381 132 11485ft 196kts
24-Nov-20 08:59 34.681596 -118.129614 132 11484ft 196kts
24-Nov-20 08:59 34.650558 -118.089076 132 11482ft 196kts
24-Nov-20 09:00 34.609131 -118.047705 162 11481ft 193kts
24-Nov-20 09:02 34.550811 -118.019434 158 11482ft 194kts
24-Nov-20 09:02 34.509497 -117.997768 158 11479ft 194kts
24-Nov-20 09:03 34.459820 -117.971214 157 11475ft 194kts
24-Nov-20 09:04 34.411044 -117.945014 157 11126ft 194kts
24-Nov-20 09:05 34.361203 -117.918251 157 10131ft 196kts
24-Nov-20 09:06 34.312607 -117.892131 156 9135ft 189kts
24-Nov-20 09:07 34.265662 -117.866883 154 8131ft 178kts
24-Nov-20 09:08 34.229890 -117.828418 135 7145ft 170kts
24-Nov-20 09:09 34.203417 -117.785881 116 6143ft 152kts
24-Nov-20 09:10 34.184862 -117.741184 110 5144ft 145kts
24-Nov-20 09:11 34.159312 -117.717454 217 4087ft 133kts
24-Nov-20 09:12 34.145746 -117.755132 255 3446ft 112kts
24-Nov-20 09:13 34.137562 -117.793809 255 3075ft 113kts
24-Nov-20 09:14 34.130347 -117.828183 255 2952ft 102kts
24-Nov-20 09:15 34.123530 -117.861933 255 2917ft 107kts
24-Nov-20 09:16 34.116502 -117.902251 265 2400ft 133kts
24-Nov-20 09:17 34.113199 -117.945441 265 1455ft 114kts
24-Nov-20 09:18 34.110798 -117.978620 264 1440ft 94kts
24-Nov-20 09:19 34.108247 -118.009824 260 1353ft 91kts
24-Nov-20 09:20 34.096491 -118.028774 199 521ft 72kts
24-Nov-20 09:21 34.085460 -118.034641 122 285ft 0kts
24-Nov-20 09:22 34.085608 -118.033705 20 287ft 0kts
24-Nov-20 09:23 34.085608 -118.033705 20 287ft 0kts
24-Nov-20 09:24 34.085608 -118.033705 20 287ft 0kts
24-Nov-20 09:25 34.085608 -118.033705 20 287ft 0kts
24-Nov-20 09:26 35.746205 -119.239195 69 312ft 0kts
24-Nov-20 09:27 35.746205 -119.239195 69 312ft 0kts
24-Nov-20 09:28 35.746205 -119.239195 69 312ft 0kts
24-Nov-20 09:29 35.746205 -119.239195 69 312ft 0kts
24-Nov-20 09:30 35.746205 -119.239195 69 312ft 0kts
24-Nov-20 09:31 35.746205 -119.239195 69 312ft 0kts
24-Nov-20 09:32 35.746205 -119.239195 69 312ft 0kts
24-Nov-20 09:33 35.746205 -119.239195 69 312ft 0kts
24-Nov-20 09:34 35.746205 -119.239195 69 312ft 0kts
24-Nov-20 09:35 35.746205 -119.239195 69 312ft 0kts

Navigation Log

Ident Type
Flight plan parsing failed, navigation log unavailable